Lake Orion, Michigan
Current Conditions -  °F | °C
As of 3:53 AM on Monday 22 Dec 2014 (Local Time) from KPTK Reporting Station
Haze Haze  
Wind Chill: 21°   Ceiling: Unl
Heat Index: 26°   Visibility: 6mi
Dew Point: 23°   Wind: 5mph
Humidity: 88%   Direction: 140°SE
Pressure: 30.11"   Gusts: NA
Location:  42.78°N, 83.24°W
Report Text: KPTK 220853Z AUTO 14004KT 6SM BR CLR M03/M05 A3011 RMK AO2 SLP206 T10331050 58015
Loading
Personal Weather Stations






























Interactive Weather Map New forecast layout! Learn more

10-Day Weather Forecast

Advertisements
Track Severe Weather on mobile